Time,TemperatureF,DewpointF,PressureIn,WindDirection,WindDirectionDegrees,WindSpeedMPH,WindSpeedGustMPH,Humidity,HourlyPrecipIn,Conditions,Clouds,dailyrainin,SoftwareType,DateUTC
2016-02-08 00:06:00,74.9,70.9,30.03,East,97,2.7,3.7,88,0.00,,,0.00,Arduino-ESP8266,2016-02-08 04:06:00,
2016-02-08 00:12:00,75.2,71.4,30.03,ESE,105,2.5,4.3,89,0.00,,,0.00,Arduino-ESP8266,2016-02-08 04:12:00,
2016-02-08 00:18:00,75.1,71.5,30.03,East,93,3.3,7.5,90,0.00,,,0.00,Arduino-ESP8266,2016-02-08 04:18:00,
2016-02-08 00:23:00,74.9,71.2,30.03,East,93,4.0,5.9,89,0.00,,,0.00,Arduino-ESP8266,2016-02-08 04:23:00,
2016-02-08 00:29:00,74.9,71.4,30.03,ESE,116,3.1,4.7,90,0.00,,,0.00,Arduino-ESP8266,2016-02-08 04:29:00,
2016-02-08 00:34:00,74.9,71.3,30.03,East,101,3.3,6.5,89,0.00,,,0.00,Arduino-ESP8266,2016-02-08 04:34:00,
2016-02-08 00:45:00,74.9,71.3,30.02,ESE,108,3.5,5.6,90,0.00,,,0.00,Arduino-ESP8266,2016-02-08 04:45:00,
2016-02-08 00:51:00,74.9,71.2,30.02,ESE,105,3.7,7.2,89,0.00,,,0.00,Arduino-ESP8266,2016-02-08 04:51:00,
2016-02-08 00:56:00,74.9,71.3,30.02,ESE,116,4.9,5.6,90,0.00,,,0.00,Arduino-ESP8266,2016-02-08 04:56:00,
2016-02-08 01:01:00,74.9,71.3,30.02,East,97,2.4,8.4,89,0.00,,,0.00,Arduino-ESP8266,2016-02-08 05:01:00,
2016-02-08 01:08:00,75.0,71.5,30.02,East,93,2.4,4.7,90,0.00,,,0.00,Arduino-ESP8266,2016-02-08 05:08:00,
2016-02-08 01:13:00,75.1,71.5,30.02,East,101,3.0,6.5,90,0.00,,,0.00,Arduino-ESP8266,2016-02-08 05:13:00,
2016-02-08 01:18:00,75.0,71.4,30.01,ESE,112,3.5,5.3,89,0.00,,,0.00,Arduino-ESP8266,2016-02-08 05:18:00,
2016-02-08 01:24:00,74.9,71.3,30.01,ESE,112,3.1,7.5,90,0.00,,,0.00,Arduino-ESP8266,2016-02-08 05:24:00,
2016-02-08 01:29:00,74.9,71.5,30.01,East,97,4.1,8.1,90,0.00,,,0.00,Arduino-ESP8266,2016-02-08 05:29:00,
2016-02-08 01:34:00,74.9,71.6,30.01,ESE,105,3.6,6.2,90,0.00,,,0.00,Arduino-ESP8266,2016-02-08 05:34:00,
2016-02-08 01:39:00,74.9,71.5,30.01,ESE,112,4.2,8.4,90,0.00,,,0.00,Arduino-ESP8266,2016-02-08 05:39:00,
2016-02-08 01:45:00,74.9,71.4,30.00,ESE,112,3.4,5.0,90,0.00,,,0.00,Arduino-ESP8266,2016-02-08 05:45:00,
2016-02-08 01:50:00,74.8,71.4,30.00,East,93,4.1,7.8,90,0.00,,,0.00,Arduino-ESP8266,2016-02-08 05:50:00,
2016-02-08 01:55:00,74.8,71.4,30.00,ESE,105,3.0,5.9,90,0.00,,,0.00,Arduino-ESP8266,2016-02-08 05:55:00,
2016-02-08 02:01:00,74.9,71.5,30.00,ESE,108,3.0,5.3,90,0.00,,,0.00,Arduino-ESP8266,2016-02-08 06:01:00,
2016-02-08 02:06:00,74.8,71.2,30.00,ESE,105,3.1,5.6,90,0.00,,,0.00,Arduino-ESP8266,2016-02-08 06:06:00,
2016-02-08 02:11:00,74.7,71.0,30.00,ESE,123,3.8,7.8,89,0.00,,,0.00,Arduino-ESP8266,2016-02-08 06:11:00,
2016-02-08 02:17:00,74.8,71.1,30.00,East,97,3.3,7.5,89,0.00,,,0.00,Arduino-ESP8266,2016-02-08 06:17:00,
2016-02-08 02:23:00,74.9,71.3,30.00,East,97,3.3,5.0,89,0.00,,,0.00,Arduino-ESP8266,2016-02-08 06:23:00,
2016-02-08 02:28:00,75.0,71.6,30.00,ESE,112,2.9,5.6,90,0.00,,,0.00,Arduino-ESP8266,2016-02-08 06:28:00,
2016-02-08 02:33:00,75.1,71.8,29.99,ESE,108,3.8,7.8,90,0.00,,,0.00,Arduino-ESP8266,2016-02-08 06:33:00,
2016-02-08 02:39:00,75.0,71.6,29.99,East,101,3.9,6.5,90,0.00,,,0.00,Arduino-ESP8266,2016-02-08 06:39:00,
2016-02-08 02:44:00,74.9,71.6,29.99,East,86,2.9,7.5,90,0.00,,,0.00,Arduino-ESP8266,2016-02-08 06:44:00,
2016-02-08 02:49:00,74.8,71.6,29.99,East,101,4.1,5.6,91,0.00,,,0.00,Arduino-ESP8266,2016-02-08 06:49:00,
2016-02-08 02:54:00,74.7,71.5,29.99,ENE,78,3.8,5.3,91,0.00,,,0.00,Arduino-ESP8266,2016-02-08 06:54:00,
2016-02-08 03:00:00,74.6,71.4,29.99,ESE,105,4.4,7.2,90,0.00,,,0.00,Arduino-ESP8266,2016-02-08 07:00:00,
2016-02-08 03:05:00,74.6,71.2,29.98,ESE,108,3.2,5.0,90,0.00,,,0.00,Arduino-ESP8266,2016-02-08 07:05:00,
2016-02-08 03:17:00,74.6,71.1,29.98,ENE,75,3.9,7.8,90,0.00,,,0.00,Arduino-ESP8266,2016-02-08 07:17:00,
2016-02-08 03:27:00,74.6,70.7,29.98,East,97,2.4,4.7,88,0.00,,,0.00,Arduino-ESP8266,2016-02-08 07:27:00,
2016-02-08 03:32:00,74.6,70.6,29.98,East,97,3.7,9.0,88,0.00,,,0.00,Arduino-ESP8266,2016-02-08 07:32:00,
2016-02-08 03:38:00,74.7,70.5,29.98,ESE,108,3.3,4.3,88,0.00,,,0.00,Arduino-ESP8266,2016-02-08 07:38:00,
2016-02-08 03:43:00,74.8,71.0,29.98,ESE,108,3.0,8.7,89,0.00,,,0.00,Arduino-ESP8266,2016-02-08 07:43:00,
2016-02-08 03:48:00,74.8,71.3,29.98,East,97,5.3,13.7,90,0.00,,,0.00,Arduino-ESP8266,2016-02-08 07:48:00,
2016-02-08 03:54:00,74.8,71.4,29.98,ESE,116,3.7,5.0,90,0.00,,,0.00,Arduino-ESP8266,2016-02-08 07:54:00,
2016-02-08 03:59:00,74.9,71.4,29.98,East,101,3.8,6.5,90,0.00,,,0.00,Arduino-ESP8266,2016-02-08 07:59:00,
2016-02-08 04:11:00,74.7,71.3,29.98,East,82,4.5,7.5,90,0.00,,,0.00,Arduino-ESP8266,2016-02-08 08:11:00,
2016-02-08 04:17:00,74.6,71.0,29.98,East,97,3.3,6.2,89,0.00,,,0.00,Arduino-ESP8266,2016-02-08 08:17:00,
2016-02-08 04:22:00,74.5,70.8,29.98,East,93,3.1,4.7,89,0.00,,,0.00,Arduino-ESP8266,2016-02-08 08:22:00,
2016-02-08 04:28:00,74.6,71.1,29.98,East,101,3.8,5.6,90,0.00,,,0.00,Arduino-ESP8266,2016-02-08 08:28:00,
2016-02-08 04:34:00,74.5,70.5,29.98,ESE,116,3.4,5.3,89,0.00,,,0.00,Arduino-ESP8266,2016-02-08 08:34:00,
2016-02-08 04:39:00,74.6,70.8,29.98,East,90,4.1,5.9,89,0.00,,,0.00,Arduino-ESP8266,2016-02-08 08:39:00,
2016-02-08 04:45:00,74.6,70.8,29.98,East,86,4.9,10.9,89,0.00,,,0.00,Arduino-ESP8266,2016-02-08 08:45:00,
2016-02-08 05:54:00,74.4,70.3,30.00,East,90,4.8,8.4,88,0.00,,,0.00,Arduino-ESP8266,2016-02-08 09:54:00,
2016-02-08 06:00:00,74.4,70.4,30.00,East,90,4.0,5.6,88,0.00,,,0.00,Arduino-ESP8266,2016-02-08 10:00:00,
2016-02-08 06:05:00,74.4,70.6,30.00,East,97,3.4,7.5,89,0.00,,,0.00,Arduino-ESP8266,2016-02-08 10:05:00,
2016-02-08 06:10:00,74.5,70.5,30.00,ESE,120,3.2,5.3,88,0.00,,,0.00,Arduino-ESP8266,2016-02-08 10:10:00,
2016-02-08 06:15:00,74.4,70.8,30.00,ESE,108,4.2,8.1,90,0.00,,,0.00,Arduino-ESP8266,2016-02-08 10:15:00,
2016-02-08 06:21:00,74.4,71.0,30.00,ENE,78,2.9,6.5,90,0.00,,,0.00,Arduino-ESP8266,2016-02-08 10:21:00,
2016-02-08 06:26:00,74.4,70.8,30.00,ESE,105,4.4,5.9,89,0.00,,,0.00,Arduino-ESP8266,2016-02-08 10:26:00,
2016-02-08 06:31:00,74.4,70.9,30.00,ESE,105,3.4,5.0,90,0.00,,,0.00,Arduino-ESP8266,2016-02-08 10:31:00,
2016-02-08 06:37:00,74.3,70.9,30.00,East,101,5.4,7.2,90,0.00,,,0.00,Arduino-ESP8266,2016-02-08 10:37:00,
2016-02-08 06:42:00,74.3,70.8,30.00,East,90,5.8,8.1,90,0.00,,,0.00,Arduino-ESP8266,2016-02-08 10:42:00,
2016-02-08 06:47:00,74.4,71.0,30.00,East,93,4.6,8.7,90,0.00,,,0.00,Arduino-ESP8266,2016-02-08 10:47:00,
2016-02-08 06:52:00,74.4,70.9,30.00,East,93,5.1,8.7,90,0.00,,,0.00,Arduino-ESP8266,2016-02-08 10:52:00,
2016-02-08 06:58:00,74.4,70.9,30.00,ESE,120,4.7,10.2,90,0.00,,,0.00,Arduino-ESP8266,2016-02-08 10:58:00,
2016-02-08 07:03:00,74.6,70.8,30.01,ESE,105,3.0,4.7,89,0.00,,,0.00,Arduino-ESP8266,2016-02-08 11:03:00,
2016-02-08 07:08:00,74.8,70.8,30.01,East,93,4.8,7.2,88,0.00,,,0.00,Arduino-ESP8266,2016-02-08 11:08:00,
2016-02-08 07:13:00,75.1,71.1,30.01,ESE,105,3.3,5.6,88,0.00,,,0.00,Arduino-ESP8266,2016-02-08 11:13:00,
2016-02-08 07:19:00,75.5,71.2,30.02,East,101,3.5,5.3,87,0.00,,,0.00,Arduino-ESP8266,2016-02-08 11:19:00,
2016-02-08 07:24:00,75.9,71.1,30.02,ESE,108,3.6,6.2,86,0.00,,,0.00,Arduino-ESP8266,2016-02-08 11:24:00,
2016-02-08 07:29:00,76.1,71.0,30.02,East,93,3.7,5.9,85,0.00,,,0.00,Arduino-ESP8266,2016-02-08 11:29:00,
2016-02-08 07:35:00,76.8,71.4,30.02,East,101,3.1,4.3,85,0.00,,,0.00,Arduino-ESP8266,2016-02-08 11:35:00,
2016-02-08 07:40:00,77.2,71.3,30.03,ESE,116,4.0,8.7,83,0.00,,,0.00,Arduino-ESP8266,2016-02-08 11:40:00,
2016-02-08 07:45:00,77.3,71.5,30.03,East,93,3.1,5.9,83,0.00,,,0.00,Arduino-ESP8266,2016-02-08 11:45:00,
2016-02-08 07:50:00,77.7,71.7,30.03,East,82,3.2,5.9,83,0.00,,,0.00,Arduino-ESP8266,2016-02-08 11:50:00,
2016-02-08 07:56:00,78.4,72.2,30.03,East,86,3.8,5.3,82,0.00,,,0.00,Arduino-ESP8266,2016-02-08 11:56:00,
2016-02-08 08:01:00,79.4,72.4,30.03,East,90,4.8,7.8,80,0.00,,,0.00,Arduino-ESP8266,2016-02-08 12:01:00,
2016-02-08 08:06:00,79.8,72.2,30.03,East,101,3.8,7.8,78,0.00,,,0.00,Arduino-ESP8266,2016-02-08 12:06:00,
2016-02-08 08:12:00,79.9,71.6,30.03,East,93,4.4,11.2,76,0.00,,,0.00,Arduino-ESP8266,2016-02-08 12:12:00,
2016-02-08 08:17:00,79.9,72.0,30.04,ESE,112,4.9,9.0,78,0.00,,,0.00,Arduino-ESP8266,2016-02-08 12:17:00,
2016-02-08 08:22:00,80.3,72.2,30.04,East,82,5.1,7.8,77,0.00,,,0.00,Arduino-ESP8266,2016-02-08 12:22:00,
2016-02-08 08:27:00,80.5,72.4,30.04,East,97,4.9,7.5,77,0.00,,,0.00,Arduino-ESP8266,2016-02-08 12:27:00,
2016-02-08 08:33:00,80.9,72.3,30.04,East,97,4.4,6.8,76,0.00,,,0.00,Arduino-ESP8266,2016-02-08 12:33:00,
2016-02-08 08:38:00,81.5,72.5,30.04,ESE,112,4.1,10.6,75,0.00,,,0.00,Arduino-ESP8266,2016-02-08 12:38:00,
2016-02-08 08:43:00,82.0,72.7,30.04,ENE,78,4.5,9.0,74,0.00,,,0.00,Arduino-ESP8266,2016-02-08 12:43:00,
2016-02-08 08:48:00,82.3,72.8,30.04,East,101,4.7,6.8,73,0.00,,,0.00,Arduino-ESP8266,2016-02-08 12:48:00,
2016-02-08 08:54:00,82.6,72.8,30.04,East,86,6.1,10.2,72,0.00,,,0.00,Arduino-ESP8266,2016-02-08 12:54:00,
2016-02-08 08:59:00,82.4,72.5,30.04,East,82,4.4,8.1,72,0.00,,,0.00,Arduino-ESP8266,2016-02-08 12:59:00,
2016-02-08 09:04:00,82.5,72.6,30.04,East,101,5.4,10.6,72,0.00,,,0.00,Arduino-ESP8266,2016-02-08 13:04:00,
2016-02-08 09:11:00,82.6,72.8,30.04,ESE,112,5.2,11.2,72,0.00,,,0.00,Arduino-ESP8266,2016-02-08 13:11:00,
2016-02-08 09:16:00,83.1,72.8,30.04,ESE,105,4.4,8.7,71,0.00,,,0.00,Arduino-ESP8266,2016-02-08 13:16:00,
2016-02-08 09:21:00,83.1,72.7,30.05,East,93,5.6,9.6,71,0.00,,,0.00,Arduino-ESP8266,2016-02-08 13:21:00,
2016-02-08 09:26:00,83.1,72.9,30.04,ESE,112,5.3,7.2,71,0.00,,,0.00,Arduino-ESP8266,2016-02-08 13:26:00,
2016-02-08 09:32:00,83.3,73.0,30.05,East,97,6.0,12.7,71,0.00,,,0.00,Arduino-ESP8266,2016-02-08 13:32:00,
2016-02-08 09:37:00,82.5,72.2,30.05,East,93,7.2,11.2,71,0.00,,,0.00,Arduino-ESP8266,2016-02-08 13:37:00,
2016-02-08 09:42:00,82.1,72.0,30.05,East,101,7.2,11.5,71,0.00,,,0.00,Arduino-ESP8266,2016-02-08 13:42:00,
2016-02-08 09:48:00,81.6,71.8,30.05,East,101,7.0,9.9,72,0.00,,,0.00,Arduino-ESP8266,2016-02-08 13:48:00,
2016-02-08 09:53:00,81.8,72.1,30.05,East,97,6.9,9.9,72,0.00,,,0.00,Arduino-ESP8266,2016-02-08 13:53:00,
2016-02-08 09:58:00,82.2,72.3,30.05,East,101,5.8,8.7,72,0.00,,,0.00,Arduino-ESP8266,2016-02-08 13:58:00,
2016-02-08 10:09:00,83.0,73.0,30.05,ESE,108,5.8,8.4,72,0.00,,,0.00,Arduino-ESP8266,2016-02-08 14:09:00,
2016-02-08 10:14:00,83.9,73.7,30.05,ESE,112,3.5,5.0,71,0.00,,,0.00,Arduino-ESP8266,2016-02-08 14:14:00,
2016-02-08 10:19:00,83.5,73.3,30.05,ESE,105,6.8,13.1,71,0.00,,,0.00,Arduino-ESP8266,2016-02-08 14:19:00,
2016-02-08 10:24:00,83.8,73.3,30.05,East,97,6.1,10.6,70,0.00,,,0.00,Arduino-ESP8266,2016-02-08 14:24:00,
2016-02-08 10:30:00,83.5,73.0,30.05,East,97,7.3,9.6,70,0.00,,,0.00,Arduino-ESP8266,2016-02-08 14:30:00,
2016-02-08 10:35:00,83.3,73.1,30.05,East,97,6.2,8.1,71,0.00,,,0.00,Arduino-ESP8266,2016-02-08 14:35:00,
2016-02-08 10:40:00,83.2,73.1,30.05,East,101,5.6,11.2,72,0.00,,,0.00,Arduino-ESP8266,2016-02-08 14:40:00,
2016-02-08 10:46:00,83.2,72.9,30.05,East,82,6.9,10.9,71,0.00,,,0.00,Arduino-ESP8266,2016-02-08 14:46:00,
2016-02-08 10:51:00,83.2,73.3,30.05,ESE,108,5.7,15.2,72,0.00,,,0.00,Arduino-ESP8266,2016-02-08 14:51:00,
2016-02-08 10:56:00,83.5,73.3,30.05,ESE,112,6.2,8.7,71,0.00,,,0.00,Arduino-ESP8266,2016-02-08 14:56:00,
2016-02-08 11:01:00,83.1,73.1,30.05,East,86,6.0,11.5,72,0.00,,,0.00,Arduino-ESP8266,2016-02-08 15:01:00,
2016-02-08 11:07:00,83.9,73.1,30.05,ESE,108,6.5,9.0,70,0.00,,,0.00,Arduino-ESP8266,2016-02-08 15:07:00,
2016-02-08 11:12:00,84.5,73.8,30.05,East,97,3.9,7.2,70,0.00,,,0.00,Arduino-ESP8266,2016-02-08 15:12:00,
2016-02-08 11:17:00,85.3,74.4,30.05,East,97,4.0,5.6,69,0.00,,,0.00,Arduino-ESP8266,2016-02-08 15:17:00,
2016-02-08 11:23:00,85.5,74.0,30.05,East,90,5.6,9.3,68,0.00,,,0.00,Arduino-ESP8266,2016-02-08 15:23:00,
2016-02-08 11:28:00,86.0,74.3,30.04,ESE,116,5.4,7.5,67,0.00,,,0.00,Arduino-ESP8266,2016-02-08 15:28:00,
2016-02-08 11:33:00,85.9,73.9,30.05,SE,127,6.6,8.1,66,0.00,,,0.00,Arduino-ESP8266,2016-02-08 15:33:00,
2016-02-08 11:44:00,86.5,73.9,30.05,ESE,112,4.5,7.2,64,0.00,,,0.00,Arduino-ESP8266,2016-02-08 15:44:00,
2016-02-08 11:50:00,86.2,73.7,30.04,ESE,108,5.5,6.8,65,0.00,,,0.00,Arduino-ESP8266,2016-02-08 15:50:00,
2016-02-08 11:55:00,85.8,73.8,30.04,East,97,4.9,10.2,66,0.00,,,0.00,Arduino-ESP8266,2016-02-08 15:55:00,
2016-02-08 12:01:00,86.2,73.9,30.04,ESE,105,5.7,8.4,65,0.00,,,0.00,Arduino-ESP8266,2016-02-08 16:01:00,
2016-02-08 12:06:00,86.7,74.5,30.04,East,93,4.7,6.2,66,0.00,,,0.00,Arduino-ESP8266,2016-02-08 16:06:00,
2016-02-08 12:11:00,86.7,74.0,30.04,East,93,5.9,8.4,64,0.00,,,0.00,Arduino-ESP8266,2016-02-08 16:11:00,
2016-02-08 12:16:00,86.6,74.0,30.04,ENE,75,5.7,9.6,64,0.00,,,0.00,Arduino-ESP8266,2016-02-08 16:16:00,
2016-02-08 12:22:00,86.4,73.8,30.03,East,97,5.7,8.4,65,0.00,,,0.00,Arduino-ESP8266,2016-02-08 16:22:00,
2016-02-08 12:27:00,86.3,73.7,30.03,East,93,5.8,8.1,65,0.00,,,0.00,Arduino-ESP8266,2016-02-08 16:27:00,
2016-02-08 12:32:00,86.1,73.6,30.03,ESE,105,5.7,8.4,65,0.00,,,0.00,Arduino-ESP8266,2016-02-08 16:32:00,
2016-02-08 12:38:00,86.3,73.9,30.02,ENE,75,4.4,6.8,65,0.00,,,0.00,Arduino-ESP8266,2016-02-08 16:38:00,
2016-02-08 12:48:00,86.3,73.8,30.02,ESE,105,4.0,5.3,65,0.00,,,0.00,Arduino-ESP8266,2016-02-08 16:48:00,
2016-02-08 12:55:00,86.3,73.8,30.02,East,86,6.2,15.5,65,0.00,,,0.00,Arduino-ESP8266,2016-02-08 16:55:00,
2016-02-08 13:00:00,85.8,73.4,30.01,East,97,5.9,12.1,65,0.00,,,0.00,Arduino-ESP8266,2016-02-08 17:00:00,
2016-02-08 13:05:00,85.8,73.7,30.01,East,93,4.5,9.6,66,0.00,,,0.00,Arduino-ESP8266,2016-02-08 17:05:00,
2016-02-08 13:10:00,85.8,73.8,30.01,East,90,5.6,7.8,66,0.00,,,0.00,Arduino-ESP8266,2016-02-08 17:10:00,
2016-02-08 13:16:00,85.6,73.6,30.00,ESE,120,6.5,10.9,66,0.00,,,0.00,Arduino-ESP8266,2016-02-08 17:16:00,
2016-02-08 13:21:00,85.8,73.9,30.00,East,82,3.2,4.3,66,0.00,,,0.00,Arduino-ESP8266,2016-02-08 17:21:00,
2016-02-08 13:26:00,85.8,73.8,30.00,ESE,108,5.6,9.3,66,0.00,,,0.00,Arduino-ESP8266,2016-02-08 17:26:00,
2016-02-08 13:31:00,85.9,74.0,29.99,East,97,3.8,4.7,66,0.00,,,0.00,Arduino-ESP8266,2016-02-08 17:31:00,
2016-02-08 13:37:00,86.1,74.0,29.99,ESE,112,4.5,10.6,66,0.00,,,0.00,Arduino-ESP8266,2016-02-08 17:37:00,
2016-02-08 13:42:00,85.9,73.8,29.99,ESE,105,5.1,9.3,66,0.00,,,0.00,Arduino-ESP8266,2016-02-08 17:42:00,
2016-02-08 13:47:00,85.5,73.7,29.98,ENE,71,6.3,8.4,67,0.00,,,0.00,Arduino-ESP8266,2016-02-08 17:47:00,
2016-02-08 13:53:00,85.3,73.8,29.98,East,97,5.2,9.6,67,0.00,,,0.00,Arduino-ESP8266,2016-02-08 17:53:00,
2016-02-08 13:58:00,85.4,73.8,29.98,East,86,5.9,18.3,67,0.00,,,0.00,Arduino-ESP8266,2016-02-08 17:58:00,
2016-02-08 14:03:00,85.6,73.9,29.97,East,90,5.4,7.5,67,0.00,,,0.00,Arduino-ESP8266,2016-02-08 18:03:00,
2016-02-08 14:08:00,85.9,73.9,29.97,East,86,5.8,8.7,66,0.00,,,0.00,Arduino-ESP8266,2016-02-08 18:08:00,
2016-02-08 14:15:00,86.5,74.3,29.97,East,101,3.1,3.7,66,0.00,,,0.00,Arduino-ESP8266,2016-02-08 18:15:00,
2016-02-08 14:20:00,86.2,74.1,29.98,East,90,4.7,6.8,66,0.00,,,0.00,Arduino-ESP8266,2016-02-08 18:20:00,
2016-02-08 14:25:00,86.0,74.0,29.97,East,93,4.6,5.9,66,0.00,,,0.00,Arduino-ESP8266,2016-02-08 18:25:00,
2016-02-08 14:31:00,85.7,73.9,29.97,East,101,4.6,7.8,67,0.00,,,0.00,Arduino-ESP8266,2016-02-08 18:31:00,
2016-02-08 14:37:00,85.9,74.3,29.97,ESE,108,3.9,6.2,67,0.00,,,0.00,Arduino-ESP8266,2016-02-08 18:37:00,
2016-02-08 14:42:00,86.2,73.9,29.97,East,93,4.6,8.7,65,0.00,,,0.00,Arduino-ESP8266,2016-02-08 18:42:00,
2016-02-08 14:47:00,85.9,73.9,29.97,East,86,3.9,11.8,66,0.00,,,0.00,Arduino-ESP8266,2016-02-08 18:47:00,
2016-02-08 14:53:00,86.4,74.4,29.97,East,101,3.9,8.7,66,0.00,,,0.00,Arduino-ESP8266,2016-02-08 18:53:00,
2016-02-08 15:38:00,85.7,73.4,29.97,East,94,3.9,5.3,65,0.00,,,0.00,Arduino-ESP8266,2016-02-08 19:38:00,
2016-02-08 15:43:00,84.5,73.0,29.96,East,90,4.1,5.3,67,0.00,,,0.00,Arduino-ESP8266,2016-02-08 19:43:00,
2016-02-08 15:48:00,84.0,73.0,29.96,East,101,4.3,8.1,69,0.00,,,0.00,Arduino-ESP8266,2016-02-08 19:48:00,
2016-02-08 15:54:00,83.1,72.6,29.95,East,101,4.6,7.2,70,0.00,,,0.00,Arduino-ESP8266,2016-02-08 19:54:00,
2016-02-08 15:59:00,83.2,72.9,29.95,ESE,123,4.8,8.1,71,0.00,,,0.00,Arduino-ESP8266,2016-02-08 19:59:00,
2016-02-08 16:04:00,83.3,73.1,29.95,East,90,3.1,4.7,71,0.00,,,0.00,Arduino-ESP8266,2016-02-08 20:04:00,
2016-02-08 16:10:00,83.4,72.8,29.95,East,97,4.8,7.2,70,0.00,,,0.00,Arduino-ESP8266,2016-02-08 20:10:00,
2016-02-08 16:15:00,83.1,72.8,29.95,East,82,4.9,7.2,71,0.00,,,0.00,Arduino-ESP8266,2016-02-08 20:15:00,
2016-02-08 16:20:00,82.6,72.7,29.95,ESE,108,3.3,6.8,72,0.00,,,0.00,Arduino-ESP8266,2016-02-08 20:20:00,
2016-02-08 16:25:00,82.3,72.6,29.95,East,90,4.3,5.6,72,0.00,,,0.00,Arduino-ESP8266,2016-02-08 20:25:00,
2016-02-08 16:32:00,80.6,71.8,29.95,ESE,105,3.8,5.9,75,0.00,,,0.00,Arduino-ESP8266,2016-02-08 20:32:00,
2016-02-08 16:37:00,79.7,71.7,29.95,East,101,3.6,4.7,77,0.00,,,0.00,Arduino-ESP8266,2016-02-08 20:37:00,
2016-02-08 16:49:00,78.5,71.3,29.95,ESE,108,4.0,7.5,80,0.00,,,0.00,Arduino-ESP8266,2016-02-08 20:49:00,
2016-02-08 16:54:00,77.8,71.2,29.95,ESE,105,5.0,7.2,81,0.00,,,0.00,Arduino-ESP8266,2016-02-08 20:54:00,
2016-02-08 16:59:00,77.3,71.1,29.94,ESE,112,5.2,9.9,82,0.00,,,0.00,Arduino-ESP8266,2016-02-08 20:59:00,
2016-02-08 17:04:00,77.3,71.4,29.94,East,101,4.0,6.8,83,0.00,,,0.00,Arduino-ESP8266,2016-02-08 21:04:00,
2016-02-08 17:15:00,77.2,71.8,29.95,ESE,105,6.4,9.3,85,0.00,,,0.00,Arduino-ESP8266,2016-02-08 21:15:00,
2016-02-08 17:20:00,77.0,71.6,29.95,ESE,105,4.9,9.3,84,0.00,,,0.00,Arduino-ESP8266,2016-02-08 21:20:00,
2016-02-08 17:26:00,76.9,71.5,29.95,ESE,105,5.3,9.6,85,0.00,,,0.00,Arduino-ESP8266,2016-02-08 21:26:00,
2016-02-08 17:31:00,76.8,71.9,29.95,ESE,108,4.4,5.9,86,0.00,,,0.00,Arduino-ESP8266,2016-02-08 21:31:00,
2016-02-08 17:36:00,76.9,72.3,29.96,ESE,108,3.9,6.5,87,0.00,,,0.00,Arduino-ESP8266,2016-02-08 21:36:00,
2016-02-08 17:41:00,76.8,71.6,29.96,ESE,116,4.3,8.7,85,0.00,,,0.00,Arduino-ESP8266,2016-02-08 21:41:00,
2016-02-08 17:47:00,76.8,71.7,29.96,ESE,112,2.9,5.3,85,0.00,,,0.00,Arduino-ESP8266,2016-02-08 21:47:00,
2016-02-08 17:52:00,77.0,72.2,29.97,East,97,2.7,3.7,86,0.00,,,0.00,Arduino-ESP8266,2016-02-08 21:52:00,
2016-02-08 17:57:00,76.7,71.8,29.97,ESE,108,3.4,8.4,86,0.00,,,0.00,Arduino-ESP8266,2016-02-08 21:57:00,
2016-02-08 18:02:00,76.6,71.4,29.97,ESE,105,5.2,9.9,85,0.00,,,0.00,Arduino-ESP8266,2016-02-08 22:02:00,
2016-02-08 18:08:00,76.5,71.4,29.98,ESE,105,4.6,6.5,85,0.00,,,0.00,Arduino-ESP8266,2016-02-08 22:08:00,
2016-02-08 18:13:00,76.5,71.6,29.98,East,97,3.4,6.2,86,0.00,,,0.00,Arduino-ESP8266,2016-02-08 22:13:00,
2016-02-08 18:18:00,76.6,71.7,29.98,ENE,78,2.4,4.3,86,0.00,,,0.00,Arduino-ESP8266,2016-02-08 22:18:00,
2016-02-08 18:24:00,76.5,71.6,29.98,ESE,105,3.6,6.8,86,0.00,,,0.00,Arduino-ESP8266,2016-02-08 22:24:00,
2016-02-08 18:35:00,76.5,71.5,29.99,East,101,2.6,5.0,86,0.00,,,0.00,Arduino-ESP8266,2016-02-08 22:35:00,
2016-02-08 18:40:00,76.7,71.9,29.99,East,93,2.1,3.7,86,0.00,,,0.00,Arduino-ESP8266,2016-02-08 22:40:00,
2016-02-08 18:46:00,76.6,72.0,29.99,East,93,2.6,5.9,87,0.00,,,0.00,Arduino-ESP8266,2016-02-08 22:46:00,
2016-02-08 18:52:00,76.7,72.0,29.99,ESE,105,3.0,5.3,86,0.00,,,0.00,Arduino-ESP8266,2016-02-08 22:52:00,
2016-02-08 18:58:00,76.8,72.2,29.99,East,97,3.3,4.7,87,0.00,,,0.00,Arduino-ESP8266,2016-02-08 22:58:00,
2016-02-08 19:03:00,76.8,72.2,29.99,ESE,123,4.3,5.6,87,0.00,,,0.00,Arduino-ESP8266,2016-02-08 23:03:00,
2016-02-08 19:08:00,76.7,72.2,29.99,East,97,4.4,6.5,87,0.00,,,0.00,Arduino-ESP8266,2016-02-08 23:08:00,
2016-02-08 19:13:00,76.6,72.2,30.00,East,82,3.9,6.8,87,0.00,,,0.00,Arduino-ESP8266,2016-02-08 23:13:00,
2016-02-08 19:19:00,76.5,71.9,30.00,ESE,116,4.3,8.7,87,0.00,,,0.00,Arduino-ESP8266,2016-02-08 23:19:00,
2016-02-08 19:24:00,76.4,71.6,30.00,East,97,4.3,5.6,86,0.00,,,0.00,Arduino-ESP8266,2016-02-08 23:24:00,
2016-02-08 19:38:00,76.3,71.6,30.00,ESE,120,3.2,4.7,86,0.00,,,0.00,Arduino-ESP8266,2016-02-08 23:38:00,
2016-02-08 19:43:00,76.2,71.6,30.01,East,97,3.9,6.5,87,0.00,,,0.00,Arduino-ESP8266,2016-02-08 23:43:00,
2016-02-08 19:48:00,76.2,71.9,30.01,East,93,3.3,10.2,88,0.00,,,0.00,Arduino-ESP8266,2016-02-08 23:48:00,
2016-02-08 19:54:00,76.2,72.0,30.01,ESE,105,4.0,5.9,88,0.00,,,0.00,Arduino-ESP8266,2016-02-08 23:54:00,
2016-02-08 20:02:00,76.2,71.9,30.01,East,90,3.7,5.3,88,0.00,,,0.00,Arduino-ESP8266,2016-02-09 00:02:00,
2016-02-08 20:07:00,76.0,71.8,30.01,ESE,105,2.9,5.3,88,0.00,,,0.00,Arduino-ESP8266,2016-02-09 00:07:00,
2016-02-08 20:14:00,76.0,71.3,30.01,ESE,108,4.3,9.3,87,0.00,,,0.00,Arduino-ESP8266,2016-02-09 00:14:00,
2016-02-08 20:19:00,75.9,71.1,30.01,East,101,2.9,6.2,86,0.00,,,0.00,Arduino-ESP8266,2016-02-09 00:19:00,
2016-02-08 20:25:00,75.9,71.3,30.01,ESE,112,4.7,7.5,87,0.00,,,0.00,Arduino-ESP8266,2016-02-09 00:25:00,
2016-02-08 20:31:00,76.0,71.3,30.01,East,97,4.8,7.2,86,0.00,,,0.00,Arduino-ESP8266,2016-02-09 00:31:00,
2016-02-08 20:36:00,76.1,71.3,30.01,East,101,4.2,5.6,86,0.00,,,0.00,Arduino-ESP8266,2016-02-09 00:36:00,
2016-02-08 20:42:00,75.9,71.2,30.02,ESE,105,3.8,6.8,86,0.00,,,0.00,Arduino-ESP8266,2016-02-09 00:42:00,
2016-02-08 20:47:00,75.9,71.5,30.02,East,97,3.7,5.6,87,0.00,,,0.00,Arduino-ESP8266,2016-02-09 00:47:00,
2016-02-08 20:58:00,75.9,71.2,30.02,ESE,112,3.5,6.5,87,0.00,,,0.00,Arduino-ESP8266,2016-02-09 00:58:00,
2016-02-08 21:03:00,75.8,71.5,30.02,ESE,112,6.1,11.2,87,0.00,,,0.00,Arduino-ESP8266,2016-02-09 01:03:00,
2016-02-08 21:14:00,75.7,72.4,30.02,ESE,120,5.0,15.5,90,0.00,,,0.00,Arduino-ESP8266,2016-02-09 01:14:00,
2016-02-08 21:19:00,75.4,72.3,30.02,East,101,5.4,8.1,91,0.00,,,0.00,Arduino-ESP8266,2016-02-09 01:19:00,
2016-02-08 21:24:00,75.1,71.8,30.02,ESE,116,4.4,8.4,90,0.00,,,0.00,Arduino-ESP8266,2016-02-09 01:24:00,
2016-02-08 21:31:00,74.8,71.9,30.03,ESE,120,5.6,7.2,91,0.00,,,0.00,Arduino-ESP8266,2016-02-09 01:31:00,
2016-02-08 21:36:00,74.7,71.4,30.03,ESE,105,5.6,9.0,90,0.00,,,0.00,Arduino-ESP8266,2016-02-09 01:36:00,
2016-02-08 21:41:00,74.8,71.6,30.02,East,101,5.8,7.8,91,0.00,,,0.00,Arduino-ESP8266,2016-02-09 01:41:00,
2016-02-08 21:47:00,74.8,71.2,30.03,ESE,120,4.8,9.6,89,0.00,,,0.00,Arduino-ESP8266,2016-02-09 01:47:00,
2016-02-08 21:52:00,74.7,71.3,30.02,ESE,116,5.3,8.7,90,0.00,,,0.00,Arduino-ESP8266,2016-02-09 01:52:00,
2016-02-08 21:57:00,74.7,71.3,30.02,East,97,4.7,9.3,90,0.00,,,0.00,Arduino-ESP8266,2016-02-09 01:57:00,
2016-02-08 22:04:00,74.8,71.2,30.03,East,97,5.6,11.5,89,0.00,,,0.00,Arduino-ESP8266,2016-02-09 02:04:00,